Terminal Aerodrome Forecast
Issued by NWS Blacksburg, VA

Home | Current Version | Previous Version | Text Only | Print | Product List | Glossary On
Versions: 1 2 3 4 5 6 7 8 9 10 11 12 13 14 15 16 17 18 19 20 21 22 23 24 25 26 27 28 29 30 31 32 33 34 35 36 37 38 39 40 41
000
FTUS41 KRNK 240534
TAFBLF
TAF
KBLF 240534Z 2406/2506 15006KT P6SM SCT090
     FM240900 16005KT P6SM BKN090
     FM241700 22007KT P6SM BKN060
     FM242100 23006KT P6SM SCT060
     FM250500 18004KT P6SM SCT250=

USA.gov is the U.S. government's official web portal to all federal, state and local government web resources and services.